sensor_id;sensor_type;location;lat;lon;timestamp;P1;durP1;ratioP1;P2;durP2;ratioP2
65597;SDS011;52267;51.984;20.956;2023-03-01T00:01:39;71.70;;;31.30;;
65597;SDS011;52267;51.984;20.956;2023-03-01T00:04:06;58.00;;;29.10;;
65597;SDS011;52267;51.984;20.956;2023-03-01T00:06:33;64.30;;;29.90;;
65597;SDS011;52267;51.984;20.956;2023-03-01T00:09:00;62.40;;;29.20;;
65597;SDS011;52267;51.984;20.956;2023-03-01T00:11:29;59.20;;;29.20;;
65597;SDS011;52267;51.984;20.956;2023-03-01T00:14:00;62.40;;;29.70;;
65597;SDS011;52267;51.984;20.956;2023-03-01T00:16:33;71.90;;;29.40;;
65597;SDS011;52267;51.984;20.956;2023-03-01T00:19:02;64.40;;;28.30;;
65597;SDS011;52267;51.984;20.956;2023-03-01T00:21:29;70.10;;;31.50;;
65597;SDS011;52267;51.984;20.956;2023-03-01T00:23:56;66.30;;;30.30;;
65597;SDS011;52267;51.984;20.956;2023-03-01T00:26:25;67.00;;;30.40;;
65597;SDS011;52267;51.984;20.956;2023-03-01T00:28:53;69.50;;;30.60;;
65597;SDS011;52267;51.984;20.956;2023-03-01T00:31:29;55.90;;;26.50;;
65597;SDS011;52267;51.984;20.956;2023-03-01T00:34:03;57.40;;;27.90;;
65597;SDS011;52267;51.984;20.956;2023-03-01T00:36:34;58.90;;;27.80;;
65597;SDS011;52267;51.984;20.956;2023-03-01T00:39:04;52.70;;;26.30;;
65597;SDS011;52267;51.984;20.956;2023-03-01T00:41:32;55.20;;;25.90;;
65597;SDS011;52267;51.984;20.956;2023-03-01T00:44:01;51.90;;;25.70;;
65597;SDS011;52267;51.984;20.956;2023-03-01T00:46:28;67.40;;;27.30;;
65597;SDS011;52267;51.984;20.956;2023-03-01T00:48:56;59.80;;;26.70;;
65597;SDS011;52267;51.984;20.956;2023-03-01T00:51:26;57.80;;;28.60;;
65597;SDS011;52267;51.984;20.956;2023-03-01T00:53:56;61.70;;;27.50;;
65597;SDS011;52267;51.984;20.956;2023-03-01T00:56:25;53.70;;;25.10;;
65597;SDS011;52267;51.984;20.956;2023-03-01T00:58:52;59.60;;;26.70;;
65597;SDS011;52267;51.984;20.956;2023-03-01T01:01:23;60.70;;;28.20;;
65597;SDS011;52267;51.984;20.956;2023-03-01T01:03:56;55.80;;;24.70;;
65597;SDS011;52267;51.984;20.956;2023-03-01T01:06:33;61.80;;;25.40;;
65597;SDS011;52267;51.984;20.956;2023-03-01T01:09:06;54.20;;;25.50;;
65597;SDS011;52267;51.984;20.956;2023-03-01T01:11:34;53.20;;;27.10;;
65597;SDS011;52267;51.984;20.956;2023-03-01T01:14:04;60.80;;;26.20;;
65597;SDS011;52267;51.984;20.956;2023-03-01T01:16:31;51.30;;;24.90;;
65597;SDS011;52267;51.984;20.956;2023-03-01T01:18:58;60.00;;;24.60;;
65597;SDS011;52267;51.984;20.956;2023-03-01T01:21:26;49.40;;;25.00;;
65597;SDS011;52267;51.984;20.956;2023-03-01T01:23:53;51.10;;;24.50;;
65597;SDS011;52267;51.984;20.956;2023-03-01T01:26:27;50.50;;;24.00;;
65597;SDS011;52267;51.984;20.956;2023-03-01T01:28:56;54.30;;;25.10;;
65597;SDS011;52267;51.984;20.956;2023-03-01T01:31:23;57.40;;;26.00;;
65597;SDS011;52267;51.984;20.956;2023-03-01T01:33:52;58.40;;;25.80;;
65597;SDS011;52267;51.984;20.956;2023-03-01T01:36:20;60.00;;;25.20;;
65597;SDS011;52267;51.984;20.956;2023-03-01T01:38:47;61.20;;;26.70;;
65597;SDS011;52267;51.984;20.956;2023-03-01T01:41:15;55.00;;;25.80;;
65597;SDS011;52267;51.984;20.956;2023-03-01T01:46:45;62.20;;;25.30;;
65597;SDS011;52267;51.984;20.956;2023-03-01T01:51:57;60.50;;;26.40;;
65597;SDS011;52267;51.984;20.956;2023-03-01T01:54:41;52.60;;;25.40;;
65597;SDS011;52267;51.984;20.956;2023-03-01T01:57:17;51.00;;;23.20;;
65597;SDS011;52267;51.984;20.956;2023-03-01T01:59:52;50.60;;;25.50;;
65597;SDS011;52267;51.984;20.956;2023-03-01T02:02:20;50.90;;;23.20;;
65597;SDS011;52267;51.984;20.956;2023-03-01T02:04:49;60.10;;;27.20;;
65597;SDS011;52267;51.984;20.956;2023-03-01T02:07:22;59.90;;;27.50;;
65597;SDS011;52267;51.984;20.956;2023-03-01T02:09:51;56.80;;;24.70;;
65597;SDS011;52267;51.984;20.956;2023-03-01T02:12:24;51.40;;;24.50;;
65597;SDS011;52267;51.984;20.956;2023-03-01T02:14:51;56.50;;;24.90;;
65597;SDS011;52267;51.984;20.956;2023-03-01T02:17:19;52.20;;;25.60;;
65597;SDS011;52267;51.984;20.956;2023-03-01T02:19:57;49.50;;;23.60;;
65597;SDS011;52267;51.984;20.956;2023-03-01T02:22:35;56.30;;;24.80;;
65597;SDS011;52267;51.984;20.956;2023-03-01T02:30:49;56.10;;;25.90;;
65597;SDS011;52267;51.984;20.956;2023-03-01T02:33:37;56.60;;;25.60;;
65597;SDS011;52267;51.984;20.956;2023-03-01T02:36:09;57.10;;;24.50;;
65597;SDS011;52267;51.984;20.956;2023-03-01T02:38:41;49.50;;;26.10;;
65597;SDS011;52267;51.984;20.956;2023-03-01T02:41:11;39.60;;;17.20;;
65597;SDS011;52267;51.984;20.956;2023-03-01T02:46:14;52.60;;;23.20;;
65597;SDS011;52267;51.984;20.956;2023-03-01T02:48:46;59.60;;;24.40;;
65597;SDS011;52267;51.984;20.956;2023-03-01T02:56:52;50.60;;;24.50;;
65597;SDS011;52267;51.984;20.956;2023-03-01T02:59:22;49.40;;;22.30;;
65597;SDS011;52267;51.984;20.956;2023-03-01T03:04:19;52.70;;;22.50;;
65597;SDS011;52267;51.984;20.956;2023-03-01T03:06:49;53.90;;;24.40;;
65597;SDS011;52267;51.984;20.956;2023-03-01T03:09:18;51.10;;;23.40;;
65597;SDS011;52267;51.984;20.956;2023-03-01T03:11:45;50.70;;;23.90;;
65597;SDS011;52267;51.984;20.956;2023-03-01T03:14:14;50.80;;;22.40;;
65597;SDS011;52267;51.984;20.956;2023-03-01T03:16:48;51.80;;;22.60;;
65597;SDS011;52267;51.984;20.956;2023-03-01T03:19:17;44.40;;;23.20;;
65597;SDS011;52267;51.984;20.956;2023-03-01T03:21:45;51.00;;;23.90;;
65597;SDS011;52267;51.984;20.956;2023-03-01T03:24:12;48.70;;;22.90;;
65597;SDS011;52267;51.984;20.956;2023-03-01T03:26:39;54.40;;;24.50;;
65597;SDS011;52267;51.984;20.956;2023-03-01T03:29:06;54.30;;;24.70;;
65597;SDS011;52267;51.984;20.956;2023-03-01T03:31:34;65.90;;;28.30;;
65597;SDS011;52267;51.984;20.956;2023-03-01T03:34:01;55.70;;;24.40;;
65597;SDS011;52267;51.984;20.956;2023-03-01T03:36:28;54.30;;;24.90;;
65597;SDS011;52267;51.984;20.956;2023-03-01T03:38:55;56.40;;;26.40;;
65597;SDS011;52267;51.984;20.956;2023-03-01T03:41:22;56.10;;;25.30;;
65597;SDS011;52267;51.984;20.956;2023-03-01T03:43:49;48.40;;;22.50;;
65597;SDS011;52267;51.984;20.956;2023-03-01T03:46:16;55.90;;;25.80;;
65597;SDS011;52267;51.984;20.956;2023-03-01T03:48:45;51.40;;;22.60;;
65597;SDS011;52267;51.984;20.956;2023-03-01T03:51:17;47.40;;;21.40;;
65597;SDS011;52267;51.984;20.956;2023-03-01T03:53:45;47.30;;;22.20;;
65597;SDS011;52267;51.984;20.956;2023-03-01T03:56:13;52.00;;;23.50;;
65597;SDS011;52267;51.984;20.956;2023-03-01T03:58:40;57.40;;;23.20;;
65597;SDS011;52267;51.984;20.956;2023-03-01T04:01:07;51.60;;;23.60;;
65597;SDS011;52267;51.984;20.956;2023-03-01T04:03:34;56.50;;;25.80;;
65597;SDS011;52267;51.984;20.956;2023-03-01T04:06:02;58.20;;;24.90;;
65597;SDS011;52267;51.984;20.956;2023-03-01T04:08:30;48.70;;;22.30;;
65597;SDS011;52267;51.984;20.956;2023-03-01T04:11:00;39.70;;;19.40;;
65597;SDS011;52267;51.984;20.956;2023-03-01T04:13:48;46.70;;;21.60;;
65597;SDS011;52267;51.984;20.956;2023-03-01T04:16:15;41.50;;;20.90;;
65597;SDS011;52267;51.984;20.956;2023-03-01T04:18:43;43.90;;;22.30;;
65597;SDS011;52267;51.984;20.956;2023-03-01T04:21:11;46.60;;;22.80;;
65597;SDS011;52267;51.984;20.956;2023-03-01T04:23:39;55.90;;;23.60;;
65597;SDS011;52267;51.984;20.956;2023-03-01T04:26:07;40.10;;;19.90;;
65597;SDS011;52267;51.984;20.956;2023-03-01T04:28:41;44.40;;;21.30;;
65597;SDS011;52267;51.984;20.956;2023-03-01T04:31:14;46.10;;;19.10;;
65597;SDS011;52267;51.984;20.956;2023-03-01T04:33:46;36.10;;;15.20;;
65597;SDS011;52267;51.984;20.956;2023-03-01T04:36:15;30.00;;;17.30;;
65597;SDS011;52267;51.984;20.956;2023-03-01T04:38:44;24.50;;;11.30;;
65597;SDS011;52267;51.984;20.956;2023-03-01T04:41:17;41.90;;;17.40;;
65597;SDS011;52267;51.984;20.956;2023-03-01T04:43:45;38.70;;;19.60;;
65597;SDS011;52267;51.984;20.956;2023-03-01T04:46:14;44.80;;;19.00;;
65597;SDS011;52267;51.984;20.956;2023-03-01T04:48:44;37.60;;;18.40;;
65597;SDS011;52267;51.984;20.956;2023-03-01T04:51:11;41.00;;;18.70;;
65597;SDS011;52267;51.984;20.956;2023-03-01T04:53:42;38.40;;;18.80;;
65597;SDS011;52267;51.984;20.956;2023-03-01T04:56:10;45.20;;;19.90;;
65597;SDS011;52267;51.984;20.956;2023-03-01T04:58:37;46.60;;;20.60;;
65597;SDS011;52267;51.984;20.956;2023-03-01T05:01:09;40.70;;;19.40;;
65597;SDS011;52267;51.984;20.956;2023-03-01T05:03:51;46.20;;;20.40;;
65597;SDS011;52267;51.984;20.956;2023-03-01T05:06:19;47.80;;;21.60;;
65597;SDS011;52267;51.984;20.956;2023-03-01T05:08:47;45.50;;;20.10;;
65597;SDS011;52267;51.984;20.956;2023-03-01T05:11:14;41.70;;;19.50;;
65597;SDS011;52267;51.984;20.956;2023-03-01T05:13:41;35.30;;;16.80;;
65597;SDS011;52267;51.984;20.956;2023-03-01T05:16:09;38.00;;;16.60;;
65597;SDS011;52267;51.984;20.956;2023-03-01T05:18:38;37.90;;;18.10;;
65597;SDS011;52267;51.984;20.956;2023-03-01T05:21:11;42.00;;;18.80;;
65597;SDS011;52267;51.984;20.956;2023-03-01T05:23:45;38.10;;;15.30;;
65597;SDS011;52267;51.984;20.956;2023-03-01T05:26:14;39.00;;;17.20;;
65597;SDS011;52267;51.984;20.956;2023-03-01T05:28:42;45.50;;;20.40;;
65597;SDS011;52267;51.984;20.956;2023-03-01T05:31:09;36.30;;;17.70;;
65597;SDS011;52267;51.984;20.956;2023-03-01T05:33:37;39.50;;;18.50;;
65597;SDS011;52267;51.984;20.956;2023-03-01T05:36:06;38.10;;;17.90;;
65597;SDS011;52267;51.984;20.956;2023-03-01T05:38:42;35.90;;;16.90;;
65597;SDS011;52267;51.984;20.956;2023-03-01T05:41:14;37.20;;;18.20;;
65597;SDS011;52267;51.984;20.956;2023-03-01T05:43:43;42.60;;;20.80;;
65597;SDS011;52267;51.984;20.956;2023-03-01T05:46:11;38.30;;;19.20;;
65597;SDS011;52267;51.984;20.956;2023-03-01T05:48:39;40.90;;;19.80;;
65597;SDS011;52267;51.984;20.956;2023-03-01T05:51:06;42.70;;;19.00;;
65597;SDS011;52267;51.984;20.956;2023-03-01T05:53:34;42.30;;;19.40;;
65597;SDS011;52267;51.984;20.956;2023-03-01T05:56:03;38.90;;;17.30;;
65597;SDS011;52267;51.984;20.956;2023-03-01T05:58:31;43.00;;;19.10;;
65597;SDS011;52267;51.984;20.956;2023-03-01T06:00:58;44.60;;;18.60;;
65597;SDS011;52267;51.984;20.956;2023-03-01T06:03:25;44.80;;;19.10;;
65597;SDS011;52267;51.984;20.956;2023-03-01T06:05:56;45.00;;;19.80;;
65597;SDS011;52267;51.984;20.956;2023-03-01T06:08:23;45.20;;;19.40;;
65597;SDS011;52267;51.984;20.956;2023-03-01T06:10:53;43.90;;;21.80;;
65597;SDS011;52267;51.984;20.956;2023-03-01T06:13:20;43.20;;;20.90;;
65597;SDS011;52267;51.984;20.956;2023-03-01T06:15:47;43.90;;;20.40;;
65597;SDS011;52267;51.984;20.956;2023-03-01T06:18:14;48.80;;;21.30;;
65597;SDS011;52267;51.984;20.956;2023-03-01T06:20:41;44.50;;;20.90;;
65597;SDS011;52267;51.984;20.956;2023-03-01T06:23:08;42.20;;;19.10;;
65597;SDS011;52267;51.984;20.956;2023-03-01T06:25:37;39.50;;;19.40;;
65597;SDS011;52267;51.984;20.956;2023-03-01T06:28:04;39.00;;;20.00;;
65597;SDS011;52267;51.984;20.956;2023-03-01T06:30:31;45.60;;;20.50;;
65597;SDS011;52267;51.984;20.956;2023-03-01T06:32:58;42.30;;;19.50;;
65597;SDS011;52267;51.984;20.956;2023-03-01T06:35:27;40.40;;;18.70;;
65597;SDS011;52267;51.984;20.956;2023-03-01T06:37:57;38.70;;;18.90;;
65597;SDS011;52267;51.984;20.956;2023-03-01T06:40:26;39.10;;;19.30;;
65597;SDS011;52267;51.984;20.956;2023-03-01T06:42:55;43.70;;;19.60;;
65597;SDS011;52267;51.984;20.956;2023-03-01T06:45:23;43.50;;;20.00;;
65597;SDS011;52267;51.984;20.956;2023-03-01T06:47:51;41.30;;;19.40;;
65597;SDS011;52267;51.984;20.956;2023-03-01T06:50:18;40.90;;;19.50;;
65597;SDS011;52267;51.984;20.956;2023-03-01T06:52:45;40.50;;;18.10;;
65597;SDS011;52267;51.984;20.956;2023-03-01T06:55:12;37.10;;;18.80;;
65597;SDS011;52267;51.984;20.956;2023-03-01T06:57:40;36.90;;;18.90;;
65597;SDS011;52267;51.984;20.956;2023-03-01T07:00:08;39.40;;;19.90;;
65597;SDS011;52267;51.984;20.956;2023-03-01T07:02:35;36.80;;;20.40;;
65597;SDS011;52267;51.984;20.956;2023-03-01T07:05:02;38.00;;;19.90;;
65597;SDS011;52267;51.984;20.956;2023-03-01T07:07:30;35.40;;;17.40;;
65597;SDS011;52267;51.984;20.956;2023-03-01T07:09:57;29.60;;;14.90;;
65597;SDS011;52267;51.984;20.956;2023-03-01T07:12:24;36.30;;;18.20;;
65597;SDS011;52267;51.984;20.956;2023-03-01T07:14:51;39.40;;;19.00;;
65597;SDS011;52267;51.984;20.956;2023-03-01T07:17:18;27.30;;;15.50;;
65597;SDS011;52267;51.984;20.956;2023-03-01T07:19:45;35.30;;;18.40;;
65597;SDS011;52267;51.984;20.956;2023-03-01T07:22:12;36.60;;;18.60;;
65597;SDS011;52267;51.984;20.956;2023-03-01T07:24:41;39.50;;;17.10;;
65597;SDS011;52267;51.984;20.956;2023-03-01T07:27:09;36.40;;;17.90;;
65597;SDS011;52267;51.984;20.956;2023-03-01T07:29:36;38.20;;;17.50;;
65597;SDS011;52267;51.984;20.956;2023-03-01T07:32:04;24.10;;;13.60;;
65597;SDS011;52267;51.984;20.956;2023-03-01T07:34:32;27.80;;;15.20;;
65597;SDS011;52267;51.984;20.956;2023-03-01T07:36:59;36.10;;;17.80;;
65597;SDS011;52267;51.984;20.956;2023-03-01T07:39:26;38.80;;;18.40;;
65597;SDS011;52267;51.984;20.956;2023-03-01T07:41:53;29.80;;;14.40;;
65597;SDS011;52267;51.984;20.956;2023-03-01T07:44:20;28.90;;;16.20;;
65597;SDS011;52267;51.984;20.956;2023-03-01T07:46:47;30.60;;;14.70;;
65597;SDS011;52267;51.984;20.956;2023-03-01T07:49:14;38.60;;;16.10;;
65597;SDS011;52267;51.984;20.956;2023-03-01T07:51:42;33.90;;;18.10;;
65597;SDS011;52267;51.984;20.956;2023-03-01T07:54:10;26.90;;;14.20;;
65597;SDS011;52267;51.984;20.956;2023-03-01T07:56:37;28.80;;;14.70;;
65597;SDS011;52267;51.984;20.956;2023-03-01T07:59:04;24.00;;;12.60;;
65597;SDS011;52267;51.984;20.956;2023-03-01T08:01:31;16.20;;;8.70;;
65597;SDS011;52267;51.984;20.956;2023-03-01T08:03:58;26.70;;;13.90;;
65597;SDS011;52267;51.984;20.956;2023-03-01T08:06:25;19.20;;;10.40;;
65597;SDS011;52267;51.984;20.956;2023-03-01T08:08:52;23.90;;;12.80;;
65597;SDS011;52267;51.984;20.956;2023-03-01T08:11:21;28.40;;;12.90;;
65597;SDS011;52267;51.984;20.956;2023-03-01T08:13:49;18.80;;;10.50;;
65597;SDS011;52267;51.984;20.956;2023-03-01T08:16:16;23.20;;;11.30;;
65597;SDS011;52267;51.984;20.956;2023-03-01T08:18:44;23.70;;;12.40;;
65597;SDS011;52267;51.984;20.956;2023-03-01T08:21:17;24.40;;;12.80;;
65597;SDS011;52267;51.984;20.956;2023-03-01T08:23:45;21.40;;;10.80;;
65597;SDS011;52267;51.984;20.956;2023-03-01T08:26:20;24.40;;;12.20;;
65597;SDS011;52267;51.984;20.956;2023-03-01T08:28:49;17.30;;;10.30;;
65597;SDS011;52267;51.984;20.956;2023-03-01T08:34:00;17.90;;;9.50;;
65597;SDS011;52267;51.984;20.956;2023-03-01T08:36:38;16.90;;;10.10;;
65597;SDS011;52267;51.984;20.956;2023-03-01T08:39:09;21.00;;;11.20;;
65597;SDS011;52267;51.984;20.956;2023-03-01T08:41:37;22.50;;;11.80;;
65597;SDS011;52267;51.984;20.956;2023-03-01T08:44:05;20.60;;;10.90;;
65597;SDS011;52267;51.984;20.956;2023-03-01T08:46:36;21.40;;;10.60;;
65597;SDS011;52267;51.984;20.956;2023-03-01T08:49:06;14.40;;;7.40;;
65597;SDS011;52267;51.984;20.956;2023-03-01T08:51:46;17.20;;;7.70;;
65597;SDS011;52267;51.984;20.956;2023-03-01T08:54:19;18.80;;;8.70;;
65597;SDS011;52267;51.984;20.956;2023-03-01T08:56:48;18.00;;;9.10;;
65597;SDS011;52267;51.984;20.956;2023-03-01T08:59:16;20.40;;;10.10;;
65597;SDS011;52267;51.984;20.956;2023-03-01T09:01:43;20.70;;;10.10;;
65597;SDS011;52267;51.984;20.956;2023-03-01T09:04:12;17.20;;;8.70;;
65597;SDS011;52267;51.984;20.956;2023-03-01T09:06:39;14.00;;;7.40;;
65597;SDS011;52267;51.984;20.956;2023-03-01T09:09:13;17.00;;;9.60;;
65597;SDS011;52267;51.984;20.956;2023-03-01T09:11:43;14.90;;;9.30;;
65597;SDS011;52267;51.984;20.956;2023-03-01T09:14:13;14.90;;;8.90;;
65597;SDS011;52267;51.984;20.956;2023-03-01T09:16:41;18.40;;;8.50;;
65597;SDS011;52267;51.984;20.956;2023-03-01T09:19:08;18.70;;;9.20;;
65597;SDS011;52267;51.984;20.956;2023-03-01T09:21:37;11.20;;;5.60;;
65597;SDS011;52267;51.984;20.956;2023-03-01T09:24:04;16.50;;;9.10;;
65597;SDS011;52267;51.984;20.956;2023-03-01T09:26:32;15.90;;;7.30;;
65597;SDS011;52267;51.984;20.956;2023-03-01T09:28:59;20.80;;;10.50;;
65597;SDS011;52267;51.984;20.956;2023-03-01T09:31:26;16.20;;;8.10;;
65597;SDS011;52267;51.984;20.956;2023-03-01T09:33:53;14.70;;;7.90;;
65597;SDS011;52267;51.984;20.956;2023-03-01T09:36:23;14.10;;;7.60;;
65597;SDS011;52267;51.984;20.956;2023-03-01T09:38:52;14.30;;;8.80;;
65597;SDS011;52267;51.984;20.956;2023-03-01T09:44:40;14.00;;;6.80;;
65597;SDS011;52267;51.984;20.956;2023-03-01T09:47:21;13.00;;;6.70;;
65597;SDS011;52267;51.984;20.956;2023-03-01T09:50:20;15.40;;;7.70;;
65597;SDS011;52267;51.984;20.956;2023-03-01T09:53:00;10.30;;;5.30;;
65597;SDS011;52267;51.984;20.956;2023-03-01T09:55:54;13.60;;;7.20;;
65597;SDS011;52267;51.984;20.956;2023-03-01T10:01:51;15.00;;;7.80;;
65597;SDS011;52267;51.984;20.956;2023-03-01T10:04:47;9.70;;;6.70;;
65597;SDS011;52267;51.984;20.956;2023-03-01T10:07:26;13.90;;;7.40;;
65597;SDS011;52267;51.984;20.956;2023-03-01T10:09:57;7.60;;;4.40;;
65597;SDS011;52267;51.984;20.956;2023-03-01T10:12:34;11.40;;;5.80;;
65597;SDS011;52267;51.984;20.956;2023-03-01T10:15:09;13.20;;;7.40;;
65597;SDS011;52267;51.984;20.956;2023-03-01T10:17:52;10.00;;;6.20;;
65597;SDS011;52267;51.984;20.956;2023-03-01T10:20:29;10.40;;;5.70;;
65597;SDS011;52267;51.984;20.956;2023-03-01T10:23:08;11.30;;;5.80;;
65597;SDS011;52267;51.984;20.956;2023-03-01T10:30:53;10.20;;;5.70;;
65597;SDS011;52267;51.984;20.956;2023-03-01T10:33:23;10.50;;;5.00;;
65597;SDS011;52267;51.984;20.956;2023-03-01T10:35:59;10.20;;;5.60;;
65597;SDS011;52267;51.984;20.956;2023-03-01T10:38:30;7.80;;;4.90;;
65597;SDS011;52267;51.984;20.956;2023-03-01T10:41:04;8.70;;;4.80;;
65597;SDS011;52267;51.984;20.956;2023-03-01T10:44:08;11.70;;;6.10;;
65597;SDS011;52267;51.984;20.956;2023-03-01T10:47:32;11.60;;;6.90;;
65597;SDS011;52267;51.984;20.956;2023-03-01T10:50:05;10.20;;;5.10;;
65597;SDS011;52267;51.984;20.956;2023-03-01T10:52:37;7.70;;;4.80;;
65597;SDS011;52267;51.984;20.956;2023-03-01T10:57:46;11.20;;;6.50;;
65597;SDS011;52267;51.984;20.956;2023-03-01T11:00:23;8.80;;;5.00;;
65597;SDS011;52267;51.984;20.956;2023-03-01T11:03:03;10.60;;;5.30;;
65597;SDS011;52267;51.984;20.956;2023-03-01T11:05:50;12.30;;;6.20;;
65597;SDS011;52267;51.984;20.956;2023-03-01T11:08:32;9.40;;;5.40;;
65597;SDS011;52267;51.984;20.956;2023-03-01T11:11:14;10.00;;;5.70;;
65597;SDS011;52267;51.984;20.956;2023-03-01T11:14:03;10.00;;;5.20;;
65597;SDS011;52267;51.984;20.956;2023-03-01T11:16:36;9.80;;;5.30;;
65597;SDS011;52267;51.984;20.956;2023-03-01T11:22:03;11.00;;;5.60;;
65597;SDS011;52267;51.984;20.956;2023-03-01T11:24:40;10.10;;;4.90;;
65597;SDS011;52267;51.984;20.956;2023-03-01T11:27:28;9.20;;;5.00;;
65597;SDS011;52267;51.984;20.956;2023-03-01T11:30:19;12.30;;;6.90;;
65597;SDS011;52267;51.984;20.956;2023-03-01T11:36:52;9.80;;;6.50;;
65597;SDS011;52267;51.984;20.956;2023-03-01T11:39:37;9.80;;;5.40;;
65597;SDS011;52267;51.984;20.956;2023-03-01T11:45:05;10.50;;;5.80;;
65597;SDS011;52267;51.984;20.956;2023-03-01T11:50:33;11.70;;;6.50;;
65597;SDS011;52267;51.984;20.956;2023-03-01T11:53:30;14.00;;;6.30;;
65597;SDS011;52267;51.984;20.956;2023-03-01T11:56:11;7.60;;;4.90;;
65597;SDS011;52267;51.984;20.956;2023-03-01T11:59:13;8.70;;;4.80;;
65597;SDS011;52267;51.984;20.956;2023-03-01T12:08:49;11.60;;;5.70;;
65597;SDS011;52267;51.984;20.956;2023-03-01T12:17:51;11.30;;;5.90;;
65597;SDS011;52267;51.984;20.956;2023-03-01T12:23:30;10.60;;;5.90;;
65597;SDS011;52267;51.984;20.956;2023-03-01T12:29:15;8.70;;;5.40;;
65597;SDS011;52267;51.984;20.956;2023-03-01T12:43:58;12.70;;;6.90;;
65597;SDS011;52267;51.984;20.956;2023-03-01T12:49:16;11.50;;;5.70;;
65597;SDS011;52267;51.984;20.956;2023-03-01T12:55:37;11.00;;;5.90;;
65597;SDS011;52267;51.984;20.956;2023-03-01T12:58:08;15.00;;;7.40;;
65597;SDS011;52267;51.984;20.956;2023-03-01T13:09:27;13.50;;;8.00;;
65597;SDS011;52267;51.984;20.956;2023-03-01T13:11:57;13.70;;;8.20;;
65597;SDS011;52267;51.984;20.956;2023-03-01T13:16:54;11.40;;;6.60;;
65597;SDS011;52267;51.984;20.956;2023-03-01T13:21:53;16.20;;;9.10;;
65597;SDS011;52267;51.984;20.956;2023-03-01T13:24:42;13.60;;;7.20;;
65597;SDS011;52267;51.984;20.956;2023-03-01T13:27:11;19.10;;;8.60;;
65597;SDS011;52267;51.984;20.956;2023-03-01T13:29:51;14.80;;;8.40;;
65597;SDS011;52267;51.984;20.956;2023-03-01T13:37:36;16.10;;;9.20;;
65597;SDS011;52267;51.984;20.956;2023-03-01T13:42:51;15.80;;;8.80;;
65597;SDS011;52267;51.984;20.956;2023-03-01T13:48:23;17.60;;;11.20;;
65597;SDS011;52267;51.984;20.956;2023-03-01T13:51:09;18.10;;;10.60;;
65597;SDS011;52267;51.984;20.956;2023-03-01T13:53:44;19.50;;;10.50;;
65597;SDS011;52267;51.984;20.956;2023-03-01T13:56:15;18.00;;;10.30;;
65597;SDS011;52267;51.984;20.956;2023-03-01T14:01:58;19.10;;;11.80;;
65597;SDS011;52267;51.984;20.956;2023-03-01T14:04:31;24.20;;;12.60;;
65597;SDS011;52267;51.984;20.956;2023-03-01T14:07:16;27.70;;;14.20;;
65597;SDS011;52267;51.984;20.956;2023-03-01T14:09:47;30.70;;;16.20;;
65597;SDS011;52267;51.984;20.956;2023-03-01T14:12:23;26.10;;;13.70;;
65597;SDS011;52267;51.984;20.956;2023-03-01T14:15:10;18.30;;;10.20;;
65597;SDS011;52267;51.984;20.956;2023-03-01T14:20:43;22.20;;;11.30;;
65597;SDS011;52267;51.984;20.956;2023-03-01T14:23:20;21.80;;;11.40;;
65597;SDS011;52267;51.984;20.956;2023-03-01T14:25:51;18.80;;;10.40;;
65597;SDS011;52267;51.984;20.956;2023-03-01T14:28:20;17.40;;;10.60;;
65597;SDS011;52267;51.984;20.956;2023-03-01T14:30:51;20.10;;;11.50;;
65597;SDS011;52267;51.984;20.956;2023-03-01T14:33:25;19.20;;;12.10;;
65597;SDS011;52267;51.984;20.956;2023-03-01T14:35:59;20.20;;;12.10;;
65597;SDS011;52267;51.984;20.956;2023-03-01T14:38:45;20.40;;;12.40;;
65597;SDS011;52267;51.984;20.956;2023-03-01T14:41:19;22.60;;;12.50;;
65597;SDS011;52267;51.984;20.956;2023-03-01T14:43:51;23.20;;;13.20;;
65597;SDS011;52267;51.984;20.956;2023-03-01T14:46:28;19.90;;;12.10;;
65597;SDS011;52267;51.984;20.956;2023-03-01T14:49:19;24.90;;;12.40;;
65597;SDS011;52267;51.984;20.956;2023-03-01T14:51:58;22.00;;;13.30;;
65597;SDS011;52267;51.984;20.956;2023-03-01T14:54:40;17.80;;;10.20;;
65597;SDS011;52267;51.984;20.956;2023-03-01T14:57:17;23.80;;;12.70;;
65597;SDS011;52267;51.984;20.956;2023-03-01T14:59:54;21.50;;;11.80;;
65597;SDS011;52267;51.984;20.956;2023-03-01T15:02:25;20.50;;;12.70;;
65597;SDS011;52267;51.984;20.956;2023-03-01T15:04:57;21.70;;;13.30;;
65597;SDS011;52267;51.984;20.956;2023-03-01T15:07:33;21.40;;;11.80;;
65597;SDS011;52267;51.984;20.956;2023-03-01T15:10:05;20.50;;;12.50;;
65597;SDS011;52267;51.984;20.956;2023-03-01T15:12:35;21.90;;;11.80;;
65597;SDS011;52267;51.984;20.956;2023-03-01T15:15:45;21.80;;;12.90;;
65597;SDS011;52267;51.984;20.956;2023-03-01T15:18:22;21.10;;;11.40;;
65597;SDS011;52267;51.984;20.956;2023-03-01T15:20:53;23.50;;;13.30;;
65597;SDS011;52267;51.984;20.956;2023-03-01T15:23:26;29.40;;;16.20;;
65597;SDS011;52267;51.984;20.956;2023-03-01T15:25:55;26.40;;;13.40;;
65597;SDS011;52267;51.984;20.956;2023-03-01T15:28:32;25.20;;;13.70;;
65597;SDS011;52267;51.984;20.956;2023-03-01T15:31:21;26.20;;;12.70;;
65597;SDS011;52267;51.984;20.956;2023-03-01T15:33:50;24.30;;;13.70;;
65597;SDS011;52267;51.984;20.956;2023-03-01T15:36:40;25.30;;;13.70;;
65597;SDS011;52267;51.984;20.956;2023-03-01T15:39:41;27.70;;;12.90;;
65597;SDS011;52267;51.984;20.956;2023-03-01T15:42:35;24.00;;;13.20;;
65597;SDS011;52267;51.984;20.956;2023-03-01T15:45:20;27.30;;;15.50;;
65597;SDS011;52267;51.984;20.956;2023-03-01T15:47:52;30.80;;;16.40;;
65597;SDS011;52267;51.984;20.956;2023-03-01T15:50:26;33.00;;;17.10;;
65597;SDS011;52267;51.984;20.956;2023-03-01T15:52:56;31.90;;;15.50;;
65597;SDS011;52267;51.984;20.956;2023-03-01T15:55:28;36.10;;;18.40;;
65597;SDS011;52267;51.984;20.956;2023-03-01T16:00:42;41.50;;;21.40;;
65597;SDS011;52267;51.984;20.956;2023-03-01T16:03:12;33.40;;;18.00;;
65597;SDS011;52267;51.984;20.956;2023-03-01T16:05:40;29.20;;;17.00;;
65597;SDS011;52267;51.984;20.956;2023-03-01T16:08:07;31.60;;;16.80;;
65597;SDS011;52267;51.984;20.956;2023-03-01T16:10:35;32.80;;;17.60;;
65597;SDS011;52267;51.984;20.956;2023-03-01T16:13:02;35.10;;;17.90;;
65597;SDS011;52267;51.984;20.956;2023-03-01T16:15:32;35.50;;;17.60;;
65597;SDS011;52267;51.984;20.956;2023-03-01T16:18:04;28.20;;;15.50;;
65597;SDS011;52267;51.984;20.956;2023-03-01T16:20:33;28.80;;;14.50;;
65597;SDS011;52267;51.984;20.956;2023-03-01T16:23:01;26.60;;;15.50;;
65597;SDS011;52267;51.984;20.956;2023-03-01T16:25:33;30.10;;;16.70;;
65597;SDS011;52267;51.984;20.956;2023-03-01T16:28:05;31.10;;;16.20;;
65597;SDS011;52267;51.984;20.956;2023-03-01T16:30:36;38.40;;;18.90;;
65597;SDS011;52267;51.984;20.956;2023-03-01T16:33:05;37.10;;;18.40;;
65597;SDS011;52267;51.984;20.956;2023-03-01T16:35:39;35.20;;;17.80;;
65597;SDS011;52267;51.984;20.956;2023-03-01T16:38:07;42.30;;;18.10;;
65597;SDS011;52267;51.984;20.956;2023-03-01T16:40:34;40.20;;;19.00;;
65597;SDS011;52267;51.984;20.956;2023-03-01T16:43:02;38.50;;;18.30;;